Terminal Aerodrome Forecast
Issued by NWS

Home | Current Version | Previous Version | Text Only | Print | Product List | Glossary On
Versions: 1 2 3 4 5 6 7 8 9 10 11 12
991
FTUS43 KDTX 232326
TAFDET
TAF
KDET 232326Z 2400/2424 17007KT P6SM SKC
     FM240200 03008KT P6SM SKC
     FM240800 02005KT P6SM SKC
     FM241500 08011G19KT P6SM SKC=

USA.gov is the U.S. government's official web portal to all federal, state and local government web resources and services.